createdAt,value
2018-05-03T00:00:52.020Z,11.20
2018-05-03T00:01:52.116Z,11.27
2018-05-03T00:02:52.210Z,11.25
2018-05-03T00:03:52.304Z,11.16
2018-05-03T00:04:52.399Z,11.19
2018-05-03T00:05:52.482Z,11.13
2018-05-03T00:06:52.593Z,11.06
2018-05-03T00:07:52.688Z,11.06
2018-05-03T00:08:52.781Z,11.11
2018-05-03T00:09:52.878Z,11.02
2018-05-03T00:10:52.972Z,10.98
2018-05-03T00:11:53.070Z,10.99
2018-05-03T00:12:53.164Z,10.98
2018-05-03T00:13:53.262Z,10.92
2018-05-03T00:14:53.360Z,10.80
2018-05-03T00:15:53.450Z,10.89
2018-05-03T00:16:53.545Z,10.86
2018-05-03T00:17:53.641Z,10.77
2018-05-03T00:18:53.753Z,10.77
2018-05-03T00:19:53.854Z,10.76
2018-05-03T00:20:53.947Z,10.63
2018-05-03T00:21:54.039Z,10.70
2018-05-03T00:22:54.136Z,10.62
2018-05-03T00:23:54.231Z,10.68
2018-05-03T00:24:54.328Z,10.60
2018-05-03T00:25:54.425Z,10.62
2018-05-03T00:26:54.518Z,10.58
2018-05-03T00:27:54.616Z,10.53
2018-05-03T00:28:54.710Z,10.47
2018-05-03T00:29:54.805Z,10.51
2018-05-03T00:30:54.904Z,10.51
2018-05-03T00:31:54.998Z,10.37
2018-05-03T00:32:55.090Z,10.37
2018-05-03T00:33:55.184Z,10.39
2018-05-03T00:34:55.277Z,10.43
2018-05-03T00:35:55.373Z,10.39
2018-05-03T00:36:55.470Z,10.37
2018-05-03T00:37:55.562Z,10.34
2018-05-03T00:38:55.656Z,10.28
2018-05-03T00:39:55.753Z,10.25
2018-05-03T00:40:55.850Z,10.26
2018-05-03T00:41:55.942Z,10.24
2018-05-03T00:42:56.039Z,10.07
2018-05-03T00:43:56.133Z,10.19
2018-05-03T00:44:56.229Z,10.22
2018-05-03T00:45:56.322Z,10.14
2018-05-03T00:46:56.410Z,10.22
2018-05-03T00:47:56.503Z,10.09
2018-05-03T00:48:56.601Z,10.09
2018-05-03T00:49:56.697Z,10.09
2018-05-03T00:50:56.792Z,10.04
2018-05-03T00:51:56.911Z,9.97
2018-05-03T00:52:57.005Z,9.89
2018-05-03T00:53:57.106Z,9.96
2018-05-03T00:54:57.199Z,10.01
2018-05-03T00:55:57.297Z,9.79
2018-05-03T00:56:57.387Z,9.75
2018-05-03T00:57:57.481Z,9.76
2018-05-03T00:58:57.576Z,9.73
2018-05-03T00:59:57.672Z,9.78
2018-05-03T01:00:57.766Z,9.83
2018-05-03T01:01:57.863Z,9.85
2018-05-03T01:02:57.966Z,9.79
2018-05-03T01:03:58.076Z,9.85
2018-05-03T01:04:58.202Z,9.79
2018-05-03T01:05:58.312Z,9.83
2018-05-03T01:06:58.407Z,9.70
2018-05-03T01:07:58.501Z,9.76
2018-05-03T01:08:58.598Z,9.56
2018-05-03T01:09:58.691Z,9.60
2018-05-03T01:10:58.786Z,9.46
2018-05-03T01:11:58.880Z,9.56
2018-05-03T01:12:58.980Z,9.56
2018-05-03T01:13:59.071Z,9.60
2018-05-03T01:14:59.164Z,9.64
2018-05-03T01:15:59.356Z,9.68
2018-05-03T01:16:59.288Z,9.63
2018-05-03T01:17:59.380Z,9.68
2018-05-03T01:18:59.470Z,9.68
2018-05-03T01:19:59.575Z,9.68
2018-05-03T01:20:59.671Z,9.70
2018-05-03T01:21:59.772Z,9.78
2018-05-03T01:22:59.911Z,9.79
2018-05-03T01:24:00.005Z,9.66
2018-05-03T01:25:00.093Z,9.75
2018-05-03T01:26:00.183Z,9.83
2018-05-03T01:27:00.272Z,9.78
2018-05-03T01:28:00.377Z,9.81
2018-05-03T01:29:00.512Z,9.85
2018-05-03T01:30:00.606Z,9.86
2018-05-03T01:31:00.702Z,9.86
2018-05-03T01:32:00.788Z,9.78
2018-05-03T01:33:00.883Z,9.82
2018-05-03T01:34:01.011Z,9.85
2018-05-03T01:35:01.095Z,9.85
2018-05-03T01:36:01.201Z,9.93
2018-05-03T01:37:01.285Z,9.93
2018-05-03T01:38:01.376Z,9.96
2018-05-03T01:39:01.478Z,9.89
2018-05-03T01:40:01.540Z,10.01
2018-05-03T01:41:01.675Z,10.04
2018-05-03T01:42:01.778Z,9.94
2018-05-03T01:43:01.858Z,9.97
2018-05-03T01:44:01.956Z,10.01
2018-05-03T01:45:02.041Z,10.00
2018-05-03T01:46:02.175Z,10.00
2018-05-03T01:47:02.286Z,10.09
2018-05-03T01:48:02.375Z,10.09
2018-05-03T01:49:02.472Z,9.99
2018-05-03T01:50:02.616Z,10.10
2018-05-03T01:51:02.747Z,10.03
2018-05-03T01:52:02.847Z,10.06
2018-05-03T01:53:02.944Z,10.07
2018-05-03T01:54:03.031Z,10.09
2018-05-03T01:55:03.132Z,10.00
2018-05-03T01:56:03.247Z,9.93
2018-05-03T01:57:03.337Z,10.01
2018-05-03T01:58:03.420Z,10.10
2018-05-03T01:59:03.548Z,10.04
2018-05-03T02:00:03.630Z,9.99
2018-05-03T02:01:03.712Z,10.00
2018-05-03T02:02:03.822Z,10.01
2018-05-03T02:03:03.901Z,10.03
2018-05-03T02:04:03.993Z,9.94
2018-05-03T02:05:04.087Z,10.03
2018-05-03T02:06:04.192Z,10.00
2018-05-03T02:07:04.309Z,10.07
2018-05-03T02:08:04.422Z,9.99
2018-05-03T02:09:04.499Z,9.99
2018-05-03T02:10:04.594Z,10.03
2018-05-03T02:11:04.685Z,10.01
2018-05-03T02:12:04.799Z,10.04
2018-05-03T02:13:04.895Z,10.00
2018-05-03T02:14:05.032Z,10.09
2018-05-03T02:15:05.134Z,10.07
2018-05-03T02:16:05.239Z,10.12
2018-05-03T02:17:05.323Z,10.14
2018-05-03T02:18:05.418Z,10.00
2018-05-03T02:19:05.520Z,10.07
2018-05-03T02:20:05.639Z,10.04
2018-05-03T02:21:05.724Z,10.07
2018-05-03T02:22:05.805Z,10.03
2018-05-03T02:23:05.897Z,10.03
2018-05-03T02:24:05.994Z,10.00
2018-05-03T02:25:06.083Z,10.04
2018-05-03T02:26:06.171Z,10.03
2018-05-03T02:27:06.266Z,9.89
2018-05-03T02:28:06.354Z,9.66
2018-05-03T02:29:06.531Z,9.57
2018-05-03T02:30:06.488Z,9.43
2018-05-03T02:31:06.600Z,9.35
2018-05-03T02:32:06.704Z,9.40
2018-05-03T02:33:06.795Z,9.48
2018-05-03T02:34:06.879Z,9.52
2018-05-03T02:35:06.977Z,9.66
2018-05-03T02:36:07.085Z,9.60
2018-05-03T02:37:07.167Z,9.71
2018-05-03T02:38:07.257Z,9.73
2018-05-03T02:39:07.351Z,9.85
2018-05-03T02:40:07.459Z,9.83
2018-05-03T02:41:07.559Z,9.81
2018-05-03T02:42:07.657Z,9.88
2018-05-03T02:43:07.754Z,9.83
2018-05-03T02:44:07.851Z,9.83
2018-05-03T02:45:07.947Z,10.01
2018-05-03T02:46:08.053Z,9.97
2018-05-03T02:47:08.159Z,10.03
2018-05-03T02:48:08.250Z,10.00
2018-05-03T02:49:08.382Z,9.96
2018-05-03T02:50:08.476Z,10.04
2018-05-03T02:51:08.572Z,10.01
2018-05-03T02:52:08.664Z,10.03
2018-05-03T02:53:08.758Z,10.06
2018-05-03T02:54:08.878Z,9.93
2018-05-03T02:55:08.979Z,9.99
2018-05-03T02:56:09.087Z,10.10
2018-05-03T02:57:09.182Z,10.09
2018-05-03T02:58:09.277Z,10.14
2018-05-03T02:59:09.362Z,10.07
2018-05-03T03:00:09.457Z,10.06
2018-05-03T03:01:09.555Z,10.03
2018-05-03T03:02:09.650Z,10.10
2018-05-03T03:03:09.742Z,10.19
2018-05-03T03:04:09.865Z,10.19
2018-05-03T03:05:09.965Z,10.04
2018-05-03T03:06:10.071Z,10.01
2018-05-03T03:07:10.181Z,9.99
2018-05-03T03:08:10.274Z,10.06
2018-05-03T03:09:10.375Z,10.04
2018-05-03T03:10:10.478Z,10.07
2018-05-03T03:11:10.573Z,10.09
2018-05-03T03:12:10.675Z,10.19
2018-05-03T03:13:10.771Z,10.14
2018-05-03T03:14:10.854Z,10.06
2018-05-03T03:15:10.944Z,10.10
2018-05-03T03:16:11.037Z,10.19
2018-05-03T03:17:11.130Z,10.06
2018-05-03T03:18:11.228Z,10.06
2018-05-03T03:19:11.311Z,10.07
2018-05-03T03:20:11.437Z,10.14
2018-05-03T03:21:11.508Z,10.21
2018-05-03T03:22:11.605Z,10.21
2018-05-03T03:23:11.708Z,10.09
2018-05-03T03:24:11.794Z,10.09
2018-05-03T03:25:11.886Z,10.12
2018-05-03T03:26:11.983Z,10.19
2018-05-03T03:27:12.077Z,10.18
2018-05-03T03:28:12.159Z,10.14
2018-05-03T03:29:12.273Z,10.22
2018-05-03T03:30:12.368Z,10.18
2018-05-03T03:31:12.465Z,10.09
2018-05-03T03:32:12.560Z,10.24
2018-05-03T03:33:12.655Z,10.17
2018-05-03T03:34:12.750Z,10.17
2018-05-03T03:35:12.841Z,10.24
2018-05-03T03:36:12.940Z,10.19
2018-05-03T03:37:13.032Z,10.17
2018-05-03T03:38:13.129Z,10.03
2018-05-03T03:39:13.221Z,10.12
2018-05-03T03:40:13.320Z,10.09
2018-05-03T03:41:13.411Z,9.99
2018-05-03T03:42:13.509Z,9.96
2018-05-03T03:43:13.598Z,10.07
2018-05-03T03:44:13.688Z,10.03
2018-05-03T03:45:13.784Z,10.00
2018-05-03T03:46:13.879Z,10.00
2018-05-03T03:47:13.974Z,10.00
2018-05-03T03:48:14.072Z,10.01
2018-05-03T03:49:14.164Z,10.03
2018-05-03T03:50:14.259Z,9.99
2018-05-03T03:51:14.353Z,9.97
2018-05-03T03:52:14.447Z,10.09
2018-05-03T03:53:14.599Z,10.10
2018-05-03T03:54:14.662Z,10.01
2018-05-03T03:55:14.756Z,9.91
2018-05-03T03:56:14.853Z,9.99
2018-05-03T03:57:14.949Z,9.99
2018-05-03T03:58:15.042Z,10.00
2018-05-03T03:59:15.139Z,9.93
2018-05-03T04:00:15.225Z,9.99
2018-05-03T04:01:15.308Z,9.85
2018-05-03T04:02:15.406Z,9.85
2018-05-03T04:03:15.513Z,9.66
2018-05-03T04:04:15.611Z,9.75
2018-05-03T04:05:15.702Z,9.66
2018-05-03T04:06:15.798Z,9.66
2018-05-03T04:07:15.892Z,9.73
2018-05-03T04:08:15.985Z,9.76
2018-05-03T04:09:16.085Z,9.68
2018-05-03T04:10:16.181Z,9.81
2018-05-03T04:11:16.275Z,9.81
2018-05-03T04:12:16.373Z,9.85
2018-05-03T04:13:16.469Z,9.89
2018-05-03T04:14:16.561Z,9.89
2018-05-03T04:15:16.657Z,9.93
2018-05-03T04:16:16.753Z,9.99
2018-05-03T04:17:16.848Z,10.04
2018-05-03T04:18:16.946Z,10.00
2018-05-03T04:19:17.044Z,10.06
2018-05-03T04:20:17.138Z,10.03
2018-05-03T04:21:17.238Z,10.06
2018-05-03T04:22:17.386Z,10.21
2018-05-03T04:23:17.428Z,10.18
2018-05-03T04:24:17.523Z,10.26
2018-05-03T04:25:17.617Z,10.24
2018-05-03T04:26:17.715Z,10.26
2018-05-03T04:27:17.810Z,10.33
2018-05-03T04:28:17.906Z,10.24
2018-05-03T04:29:18.001Z,10.30
2018-05-03T04:30:18.096Z,10.39
2018-05-03T04:31:18.191Z,10.39
2018-05-03T04:32:18.285Z,10.39
2018-05-03T04:33:18.383Z,10.36
2018-05-03T04:34:18.477Z,10.42
2018-05-03T04:35:18.572Z,10.37
2018-05-03T04:36:18.666Z,10.33
2018-05-03T04:37:18.763Z,10.40
2018-05-03T04:38:18.864Z,10.52
2018-05-03T04:39:18.954Z,10.55
2018-05-03T04:40:19.050Z,10.53
2018-05-03T04:41:19.149Z,10.46
2018-05-03T04:42:19.240Z,10.44
2018-05-03T04:43:19.337Z,10.55
2018-05-03T04:44:19.436Z,10.51
2018-05-03T04:45:19.527Z,10.56
2018-05-03T04:46:19.622Z,10.60
2018-05-03T04:47:19.739Z,10.59
2018-05-03T04:48:19.833Z,10.60
2018-05-03T04:49:19.932Z,10.66
2018-05-03T04:50:20.024Z,10.62
2018-05-03T04:51:20.122Z,10.73
2018-05-03T04:52:20.216Z,10.71
2018-05-03T04:53:20.311Z,10.74
2018-05-03T04:54:20.410Z,10.76
2018-05-03T04:55:20.505Z,10.71
2018-05-03T04:56:20.602Z,10.74
2018-05-03T04:57:20.698Z,10.71
2018-05-03T04:58:20.795Z,10.74
2018-05-03T04:59:20.891Z,10.84
2018-05-03T05:00:20.987Z,10.84
2018-05-03T05:01:21.078Z,10.81
2018-05-03T05:02:21.235Z,10.81
2018-05-03T05:03:21.267Z,10.91
2018-05-03T05:04:21.363Z,10.95
2018-05-03T05:05:21.459Z,10.91
2018-05-03T05:06:21.559Z,10.98
2018-05-03T05:07:21.668Z,10.99
2018-05-03T05:08:21.765Z,10.98
2018-05-03T05:09:21.859Z,11.14
2018-05-03T05:10:21.959Z,11.09
2018-05-03T05:11:22.054Z,11.14
2018-05-03T05:12:22.216Z,11.24
2018-05-03T05:13:22.247Z,11.19
2018-05-03T05:14:22.350Z,11.21
2018-05-03T05:15:22.440Z,11.27
2018-05-03T05:16:22.539Z,11.31
2018-05-03T05:17:22.633Z,11.28
2018-05-03T05:18:22.731Z,11.29
2018-05-03T05:19:22.828Z,11.38
2018-05-03T05:20:22.920Z,11.29
2018-05-03T05:21:23.012Z,11.27
2018-05-03T05:22:23.106Z,11.36
2018-05-03T05:23:23.204Z,11.35
2018-05-03T05:24:23.304Z,11.19
2018-05-03T05:25:23.397Z,11.32
2018-05-03T05:26:23.493Z,11.35
2018-05-03T05:27:23.596Z,11.35
2018-05-03T05:28:23.691Z,11.43
2018-05-03T05:29:23.789Z,11.38
2018-05-03T05:30:23.885Z,11.56
2018-05-03T05:31:23.980Z,11.50
2018-05-03T05:32:24.076Z,11.54
2018-05-03T05:33:24.174Z,11.44
2018-05-03T05:34:24.272Z,11.46
2018-05-03T05:35:24.367Z,11.46
2018-05-03T05:36:24.464Z,11.47
2018-05-03T05:37:24.559Z,11.59
2018-05-03T05:38:24.727Z,11.64
2018-05-03T05:39:24.757Z,11.62
2018-05-03T05:40:24.850Z,11.62
2018-05-03T05:41:24.943Z,11.65
2018-05-03T05:42:25.029Z,11.65
2018-05-03T05:43:25.107Z,11.78
2018-05-03T05:44:25.219Z,11.78
2018-05-03T05:45:25.306Z,11.83
2018-05-03T05:46:25.403Z,11.85
2018-05-03T05:47:25.529Z,11.87
2018-05-03T05:48:25.620Z,12.04
2018-05-03T05:49:25.739Z,11.97
2018-05-03T05:50:25.848Z,11.97
2018-05-03T05:51:25.943Z,12.02
2018-05-03T05:52:26.042Z,11.99
2018-05-03T05:53:26.139Z,11.97
2018-05-03T05:54:26.237Z,11.99
2018-05-03T05:55:26.332Z,12.06
2018-05-03T05:56:26.429Z,12.13
2018-05-03T05:57:26.529Z,12.16
2018-05-03T05:58:26.625Z,12.15
2018-05-03T05:59:26.719Z,12.19
2018-05-03T06:00:26.815Z,12.23
2018-05-03T06:01:26.910Z,12.33
2018-05-03T06:02:27.014Z,12.42
2018-05-03T06:03:27.110Z,12.38
2018-05-03T06:04:27.202Z,12.38
2018-05-03T06:05:27.303Z,12.30
2018-05-03T06:06:27.398Z,12.38
2018-05-03T06:07:27.495Z,12.38
2018-05-03T06:08:27.585Z,12.37
2018-05-03T06:09:27.696Z,12.49
2018-05-03T06:10:27.946Z,12.51
2018-05-03T06:11:27.887Z,12.56
2018-05-03T06:12:27.986Z,12.57
2018-05-03T06:13:28.090Z,12.60
2018-05-03T06:14:28.185Z,12.64
2018-05-03T06:15:28.282Z,12.64
2018-05-03T06:16:28.377Z,12.75
2018-05-03T06:17:28.474Z,12.82
2018-05-03T06:18:28.572Z,12.79
2018-05-03T06:19:28.670Z,12.84
2018-05-03T06:20:28.768Z,12.93
2018-05-03T06:21:28.876Z,12.97
2018-05-03T06:22:28.975Z,13.06
2018-05-03T06:23:29.077Z,13.17
2018-05-03T06:24:29.174Z,13.22
2018-05-03T06:25:29.272Z,13.32
2018-05-03T06:26:29.356Z,13.30
2018-05-03T06:27:29.450Z,13.37
2018-05-03T06:28:29.549Z,13.36
2018-05-03T06:29:29.649Z,13.40
2018-05-03T06:30:29.756Z,13.38
2018-05-03T06:31:29.981Z,13.37
2018-05-03T06:32:29.971Z,13.43
2018-05-03T06:33:30.078Z,13.36
2018-05-03T06:34:30.166Z,13.40
2018-05-03T06:35:30.292Z,13.33
2018-05-03T06:36:30.426Z,13.44
2018-05-03T06:37:30.519Z,13.37
2018-05-03T06:38:30.650Z,13.46
2018-05-03T06:39:30.728Z,13.43
2018-05-03T06:40:30.837Z,13.52
2018-05-03T06:41:30.998Z,13.65
2018-05-03T06:42:31.089Z,13.91
2018-05-03T06:43:31.302Z,13.91
2018-05-03T06:44:31.284Z,14.06
2018-05-03T06:45:31.388Z,14.31
2018-05-03T06:46:31.469Z,14.42
2018-05-03T06:47:31.655Z,14.52
2018-05-03T06:48:31.755Z,14.78
2018-05-03T06:49:31.873Z,14.75
2018-05-03T06:50:32.202Z,14.88
2018-05-03T06:51:32.138Z,14.99
2018-05-03T06:52:32.271Z,15.19
2018-05-03T06:53:32.266Z,15.26
2018-05-03T06:54:32.361Z,15.41
2018-05-03T06:55:32.567Z,15.46
2018-05-03T06:56:32.673Z,15.51
2018-05-03T06:57:32.810Z,15.63
2018-05-03T06:58:32.938Z,15.66
2018-05-03T06:59:33.037Z,15.74
2018-05-03T07:00:33.223Z,15.85
2018-05-03T07:01:33.286Z,15.88
2018-05-03T07:02:33.275Z,16.01
2018-05-03T07:03:33.516Z,16.04
2018-05-03T07:04:33.524Z,15.99
2018-05-03T07:05:33.649Z,16.11
2018-05-03T07:06:33.682Z,16.12
2018-05-03T07:07:33.784Z,16.09
2018-05-03T07:08:34.055Z,16.18
2018-05-03T07:09:34.031Z,16.23
2018-05-03T07:10:34.134Z,16.15
2018-05-03T07:11:34.231Z,16.16
2018-05-03T07:12:34.324Z,16.22
2018-05-03T07:13:34.457Z,16.27
2018-05-03T07:14:34.584Z,16.18
2018-05-03T07:15:34.688Z,16.22
2018-05-03T07:16:34.783Z,16.15
2018-05-03T07:17:34.871Z,16.27
2018-05-03T07:18:34.969Z,16.33
2018-05-03T07:19:35.072Z,16.37
2018-05-03T07:20:35.167Z,16.41
2018-05-03T07:21:35.263Z,16.22
2018-05-03T07:22:35.364Z,16.33
2018-05-03T07:23:35.464Z,16.41
2018-05-03T07:24:35.561Z,16.45
2018-05-03T07:25:35.651Z,15.82
2018-05-03T07:26:35.761Z,15.67
2018-05-03T07:27:35.853Z,15.68
2018-05-03T07:28:35.970Z,15.85
2018-05-03T07:29:36.080Z,15.61
2018-05-03T07:30:36.171Z,15.63
2018-05-03T07:31:36.266Z,15.85
2018-05-03T07:32:36.355Z,15.97
2018-05-03T07:33:36.446Z,16.01
2018-05-03T07:34:36.575Z,16.20
2018-05-03T07:35:36.696Z,16.23
2018-05-03T07:36:36.788Z,15.89
2018-05-03T07:37:36.910Z,15.70
2018-05-03T07:38:37.014Z,15.56
2018-05-03T07:39:37.138Z,15.57
2018-05-03T07:40:37.268Z,15.61
2018-05-03T07:41:37.352Z,15.68
2018-05-03T07:42:40.440Z,15.76
2018-05-03T07:43:37.590Z,15.76
2018-05-03T07:44:37.687Z,15.61
2018-05-03T07:45:37.851Z,15.52
2018-05-03T07:46:37.841Z,15.52
2018-05-03T07:47:37.929Z,14.91
2018-05-03T07:48:38.095Z,14.47
2018-05-03T07:49:38.117Z,14.57
2018-05-03T07:50:38.327Z,14.67
2018-05-03T07:51:38.318Z,14.80
2018-05-03T07:52:38.411Z,14.87
2018-05-03T07:53:38.570Z,14.86
2018-05-03T07:54:38.672Z,15.03
2018-05-03T07:55:38.786Z,14.88
2018-05-03T07:56:38.965Z,14.91
2018-05-03T07:57:39.069Z,14.83
2018-05-03T07:58:39.186Z,14.71
2018-05-03T07:59:39.277Z,14.52
2018-05-03T08:00:39.375Z,14.44
2018-05-03T08:01:39.478Z,14.46
2018-05-03T08:02:39.588Z,14.56
2018-05-03T08:03:39.707Z,14.52
2018-05-03T08:04:39.821Z,14.50
2018-05-03T08:05:39.920Z,14.64
2018-05-03T08:06:40.030Z,14.74
2018-05-03T08:07:40.128Z,14.86
2018-05-03T08:08:40.216Z,14.72
2018-05-03T08:09:40.343Z,14.86
2018-05-03T08:10:40.528Z,14.90
2018-05-03T08:11:40.533Z,14.71
2018-05-03T08:12:40.684Z,14.71
2018-05-03T08:13:40.743Z,14.91
2018-05-03T08:14:40.848Z,15.01
2018-05-03T08:15:41.043Z,14.99
2018-05-03T08:16:41.049Z,15.03
2018-05-03T08:17:41.161Z,15.06
2018-05-03T08:18:41.267Z,15.06
2018-05-03T08:19:41.471Z,14.91
2018-05-03T08:20:41.443Z,14.88
2018-05-03T08:21:41.558Z,15.03
2018-05-03T08:22:41.772Z,15.11
2018-05-03T08:23:41.748Z,15.31
2018-05-03T08:24:41.902Z,15.39
2018-05-03T08:25:41.987Z,15.21
2018-05-03T08:26:42.082Z,15.26
2018-05-03T08:27:42.175Z,15.24
2018-05-03T08:28:42.274Z,15.21
2018-05-03T08:29:42.369Z,15.41
2018-05-03T08:30:42.481Z,15.12
2018-05-03T08:31:42.618Z,15.31
2018-05-03T08:32:42.663Z,15.59
2018-05-03T08:33:42.857Z,15.64
2018-05-03T08:34:42.957Z,15.93
2018-05-03T08:35:43.060Z,16.11
2018-05-03T08:36:43.160Z,16.20
2018-05-03T08:37:43.279Z,16.18
2018-05-03T08:38:43.377Z,15.81
2018-05-03T08:39:43.466Z,16.01
2018-05-03T08:40:43.605Z,15.88
2018-05-03T08:41:43.747Z,15.96
2018-05-03T08:42:43.743Z,16.06
2018-05-03T08:43:43.845Z,16.30
2018-05-03T08:44:43.943Z,16.31
2018-05-03T08:45:44.232Z,16.18
2018-05-03T08:46:44.135Z,15.92
2018-05-03T08:47:44.222Z,16.18
2018-05-03T08:48:44.316Z,16.31
2018-05-03T08:49:44.400Z,16.60
2018-05-03T08:50:44.550Z,16.85
2018-05-03T08:51:44.600Z,16.63
2018-05-03T08:52:44.702Z,16.81
2018-05-03T08:53:44.817Z,16.99
2018-05-03T08:54:44.913Z,16.77
2018-05-03T08:55:45.023Z,16.58
2018-05-03T08:56:45.115Z,16.68
2018-05-03T08:57:45.212Z,17.08
2018-05-03T08:58:45.325Z,16.73
2018-05-03T08:59:45.439Z,16.44
2018-05-03T09:00:45.533Z,16.48
2018-05-03T09:01:45.709Z,16.77
2018-05-03T09:02:45.807Z,16.92
2018-05-03T09:03:45.862Z,17.11
2018-05-03T09:04:45.941Z,17.07
2018-05-03T09:05:46.048Z,17.14
2018-05-03T09:06:46.198Z,17.03
2018-05-03T09:07:46.330Z,17.26
2018-05-03T09:08:46.428Z,17.30
2018-05-03T09:09:46.497Z,17.44
2018-05-03T09:10:46.628Z,17.53
2018-05-03T09:11:46.736Z,17.73
2018-05-03T09:12:46.865Z,18.00
2018-05-03T09:13:47.078Z,18.09
2018-05-03T09:14:47.026Z,18.33
2018-05-03T09:15:47.123Z,18.12
2018-05-03T09:16:47.229Z,18.04
2018-05-03T09:17:47.320Z,18.27
2018-05-03T09:18:47.425Z,18.22
2018-05-03T09:19:47.531Z,18.29
2018-05-03T09:20:47.677Z,18.40
2018-05-03T09:21:47.828Z,18.13
2018-05-03T09:22:47.852Z,17.99
2018-05-03T09:23:47.873Z,18.13
2018-05-03T09:24:48.051Z,18.34
2018-05-03T09:25:48.092Z,18.36
2018-05-03T09:26:48.099Z,18.22
2018-05-03T09:27:48.203Z,17.88
2018-05-03T09:28:48.294Z,17.91
2018-05-03T09:29:48.383Z,17.67
2018-05-03T09:30:48.500Z,17.88
2018-05-03T09:31:48.603Z,18.04
2018-05-03T09:32:48.693Z,18.04
2018-05-03T09:33:48.809Z,18.18
2018-05-03T09:34:48.901Z,18.12
2018-05-03T09:35:48.972Z,17.67
2018-05-03T09:36:49.081Z,17.33
2018-05-03T09:37:49.198Z,17.46
2018-05-03T09:38:49.283Z,17.29
2018-05-03T09:39:49.439Z,17.50
2018-05-03T09:40:49.490Z,17.55
2018-05-03T09:41:49.576Z,17.54
2018-05-03T09:42:49.662Z,17.69
2018-05-03T09:43:49.781Z,17.70
2018-05-03T09:44:49.882Z,17.62
2018-05-03T09:45:49.959Z,17.81
2018-05-03T09:46:50.067Z,18.03
2018-05-03T09:47:50.199Z,18.21
2018-05-03T09:48:50.208Z,18.15
2018-05-03T09:49:50.341Z,18.43
2018-05-03T09:50:50.425Z,18.57
2018-05-03T09:51:50.495Z,18.70
2018-05-03T09:52:50.610Z,18.76
2018-05-03T09:53:50.729Z,18.80
2018-05-03T09:54:50.834Z,18.94
2018-05-03T09:55:50.960Z,19.06
2018-05-03T09:56:51.071Z,19.42
2018-05-03T09:57:51.164Z,19.36
2018-05-03T09:58:51.258Z,19.10
2018-05-03T09:59:51.385Z,18.92
2018-05-03T10:00:51.488Z,18.79
2018-05-03T10:01:51.599Z,18.50
2018-05-03T10:02:51.798Z,18.58
2018-05-03T10:03:51.752Z,18.27
2018-05-03T10:04:51.933Z,18.44
2018-05-03T10:05:51.969Z,18.50
2018-05-03T10:06:52.072Z,18.39
2018-05-03T10:07:52.190Z,18.54
2018-05-03T10:08:52.273Z,18.40
2018-05-03T10:09:52.373Z,18.39
2018-05-03T10:10:52.477Z,18.34
2018-05-03T10:11:52.578Z,18.54
2018-05-03T10:12:52.678Z,18.57
2018-05-03T10:13:52.780Z,18.61
2018-05-03T10:14:52.885Z,18.50
2018-05-03T10:15:52.983Z,18.37
2018-05-03T10:16:53.086Z,18.37
2018-05-03T10:17:53.184Z,18.43
2018-05-03T10:18:53.288Z,18.43
2018-05-03T10:19:53.387Z,18.54
2018-05-03T10:20:53.492Z,18.55
2018-05-03T10:21:53.594Z,18.55
2018-05-03T10:22:53.699Z,18.43
2018-05-03T10:23:53.797Z,18.54
2018-05-03T10:24:53.900Z,18.68
2018-05-03T10:25:54.002Z,18.72
2018-05-03T10:26:54.101Z,18.62
2018-05-03T10:27:54.202Z,18.73
2018-05-03T10:28:54.306Z,18.18
2018-05-03T10:29:54.446Z,17.99
2018-05-03T10:30:54.507Z,18.18
2018-05-03T10:31:54.609Z,17.54
2018-05-03T10:32:54.707Z,17.28
2018-05-03T10:33:54.806Z,17.46
2018-05-03T10:34:54.913Z,17.13
2018-05-03T10:35:55.083Z,17.18
2018-05-03T10:36:55.112Z,17.30
2018-05-03T10:37:55.216Z,17.00
2018-05-03T10:38:55.316Z,16.89
2018-05-03T10:39:55.418Z,16.85
2018-05-03T10:40:55.516Z,17.00
2018-05-03T10:41:55.693Z,17.15
2018-05-03T10:42:55.717Z,17.33
2018-05-03T10:43:55.818Z,17.23
2018-05-03T10:44:55.923Z,17.11
2018-05-03T10:45:56.024Z,17.14
2018-05-03T10:46:56.124Z,17.22
2018-05-03T10:47:56.226Z,17.44
2018-05-03T10:48:56.319Z,17.25
2018-05-03T10:49:56.420Z,17.23
2018-05-03T10:50:56.520Z,17.51
2018-05-03T10:51:56.611Z,17.63
2018-05-03T10:52:56.725Z,17.78
2018-05-03T10:53:56.825Z,17.97
2018-05-03T10:54:56.933Z,17.94
2018-05-03T10:55:57.034Z,18.03
2018-05-03T10:56:57.134Z,18.29
2018-05-03T10:57:57.237Z,18.55
2018-05-03T10:58:57.322Z,18.68
2018-05-03T10:59:57.441Z,19.05
2018-05-03T11:00:57.541Z,18.94
2018-05-03T11:01:57.643Z,18.82
2018-05-03T11:02:57.744Z,18.84
2018-05-03T11:03:57.848Z,18.90
2018-05-03T11:04:57.945Z,18.70
2018-05-03T11:05:58.047Z,18.42
2018-05-03T11:06:58.147Z,18.37
2018-05-03T11:07:58.250Z,18.13
2018-05-03T11:08:58.349Z,17.82
2018-05-03T11:09:58.451Z,17.89
2018-05-03T11:10:58.556Z,17.87
2018-05-03T11:11:58.655Z,17.88
2018-05-03T11:12:58.762Z,17.85
2018-05-03T11:13:58.860Z,17.54
2018-05-03T11:14:58.965Z,17.79
2018-05-03T11:15:59.067Z,18.07
2018-05-03T11:16:59.175Z,18.31
2018-05-03T11:17:59.275Z,18.59
2018-05-03T11:18:59.375Z,18.70
2018-05-03T11:19:59.469Z,18.91
2018-05-03T11:20:59.651Z,18.98
2018-05-03T11:21:59.709Z,19.08
2018-05-03T11:22:59.848Z,18.97
2018-05-03T11:23:59.938Z,18.36
2018-05-03T11:25:00.061Z,18.19
2018-05-03T11:26:00.177Z,18.25
2018-05-03T11:27:00.331Z,18.49
2018-05-03T11:28:00.310Z,18.52
2018-05-03T11:29:00.421Z,18.57
2018-05-03T11:30:00.659Z,18.49
2018-05-03T11:31:00.708Z,18.67
2018-05-03T11:32:00.724Z,18.98
2018-05-03T11:33:00.820Z,19.08
2018-05-03T11:34:00.918Z,18.90
2018-05-03T11:35:01.185Z,19.10
2018-05-03T11:36:01.078Z,19.31
2018-05-03T11:37:01.202Z,19.13
2018-05-03T11:38:01.274Z,19.14
2018-05-03T11:39:01.363Z,19.02
2018-05-03T11:40:01.495Z,18.92
2018-05-03T11:41:01.630Z,18.72
2018-05-03T11:42:01.720Z,18.42
2018-05-03T11:43:01.873Z,17.99
2018-05-03T11:44:01.972Z,17.59
2018-05-03T11:45:02.108Z,17.46
2018-05-03T11:46:02.231Z,17.50
2018-05-03T11:47:02.313Z,17.67
2018-05-03T11:48:02.438Z,17.89
2018-05-03T11:49:02.550Z,18.00
2018-05-03T11:50:02.648Z,17.82
2018-05-03T11:51:02.733Z,18.04
2018-05-03T11:52:02.858Z,18.19
2018-05-03T11:53:02.955Z,18.29
2018-05-03T11:54:03.044Z,18.42
2018-05-03T11:55:03.150Z,18.55
2018-05-03T11:56:03.241Z,18.37
2018-05-03T11:57:03.355Z,18.36
2018-05-03T11:58:03.446Z,18.46
2018-05-03T11:59:03.559Z,18.22
2018-05-03T12:00:03.650Z,17.82
2018-05-03T12:01:03.741Z,17.78
2018-05-03T12:02:03.852Z,17.81
2018-05-03T12:03:03.938Z,18.07
2018-05-03T12:04:04.031Z,18.22
2018-05-03T12:05:04.155Z,18.47
2018-05-03T12:06:04.297Z,18.73
2018-05-03T12:07:04.370Z,18.68
2018-05-03T12:08:04.487Z,19.02
2018-05-03T12:09:04.627Z,19.35
2018-05-03T12:10:04.728Z,19.57
2018-05-03T12:11:04.902Z,19.70
2018-05-03T12:12:04.868Z,19.86
2018-05-03T12:13:04.966Z,20.09
2018-05-03T12:14:05.060Z,20.50
2018-05-03T12:15:05.148Z,20.68
2018-05-03T12:16:05.268Z,20.87
2018-05-03T12:17:05.368Z,20.90
2018-05-03T12:18:05.463Z,20.79
2018-05-03T12:19:05.561Z,20.69
2018-05-03T12:20:05.671Z,20.66
2018-05-03T12:21:05.770Z,20.71
2018-05-03T12:22:05.891Z,20.38
2018-05-03T12:23:05.962Z,20.34
2018-05-03T12:24:06.061Z,20.21
2018-05-03T12:25:06.176Z,19.80
2018-05-03T12:26:06.296Z,19.68
2018-05-03T12:27:06.397Z,19.75
2018-05-03T12:28:06.500Z,19.76
2018-05-03T12:29:06.615Z,19.86
2018-05-03T12:30:06.715Z,19.87
2018-05-03T12:31:06.818Z,19.83
2018-05-03T12:32:06.946Z,19.66
2018-05-03T12:33:07.066Z,19.43
2018-05-03T12:34:07.153Z,18.98
2018-05-03T12:35:07.257Z,18.84
2018-05-03T12:36:07.368Z,18.67
2018-05-03T12:37:07.475Z,18.40
2018-05-03T12:38:07.574Z,18.65
2018-05-03T12:39:07.668Z,18.73
2018-05-03T12:40:07.855Z,18.97
2018-05-03T12:41:07.906Z,18.95
2018-05-03T12:42:08.017Z,19.17
2018-05-03T12:43:08.125Z,19.31
2018-05-03T12:44:08.222Z,19.51
2018-05-03T12:45:08.327Z,19.57
2018-05-03T12:46:08.446Z,19.79
2018-05-03T12:47:08.543Z,19.83
2018-05-03T12:48:08.639Z,19.98
2018-05-03T12:49:08.726Z,20.10
2018-05-03T12:50:08.827Z,20.21
2018-05-03T12:51:08.930Z,20.50
2018-05-03T12:52:09.013Z,20.59
2018-05-03T12:53:09.119Z,20.47
2018-05-03T12:54:09.220Z,20.56
2018-05-03T12:55:09.317Z,20.54
2018-05-03T12:56:09.437Z,20.66
2018-05-03T12:57:09.527Z,20.86
2018-05-03T12:58:09.638Z,20.96